aviador You're here:

LFTH Decoded Metar

HYERES in FRANCE
Report Time2018-06-17 23:00:00
UTC Time2018-06-17 23:35:37
Flight Rules vfr VFR
Wind300° at 05 kt
W.Decomp.*RWY 31: 4.9 kt HW 1 kt LCW
RWY 23: 1.8 kt HW 4.7 kt RCW
W.Rank300° ranks 6
Current wind is below 300° avg. (8.8)
Visibility9999 m
Phenomena:N/A
Clouds:N/A
Expected CloudBase > 2,800 ft AGL from Temp-Dew spread
CeilingNone
Temp22°C (ISA +7)
Dew Point15°C (65% RH)
AAT21.9°C
QNH1014 hPa
Density Alt1,027 ft
Elevation13 ft
Report Wrong Elevation
Raw Report
METAR LFTH 172300Z AUTO 30005KT CAVOK 22/15 Q1014 NOSIG=

Extra information for LFTH:More info

Metar Taf Metar & Taf Last 4 Metars F.Rules Stats Wind Profile Meteogram Temp Stats Airport Information Weather charts Add Link Nearby VenuesMetar ALERT Operation Metar Decoded Social comments